FMEE/RUN METAR and TAF weather

Enter ICAO airport designator
Station Type Date Time Source
FMEE METAR 2022/01/25 05:00 UTC NOAA

FMEE 250500Z AUTO 11019KT 9999 FEW058 28/15 Q1014 NOSIG


Station Type Date Time Source
FMEE Decoded METAR 2022/01/25 05:00 UTC NOAA

Saint-Denis / Gillot, Reunion (FMEE) 20-53S 055-31E 25M
Jan 25, 2022 - 12:00 AM EST / 2022.01.25 0500 UTC
Wind: from the ESE (110 degrees) at 22 MPH (19 KT):0
Visibility: greater than 7 mile(s):0
Sky conditions: mostly clear
Temperature: 82 F (28 C)
Dew Point: 59 F (15 C)
Relative Humidity: 45%
Pressure (altimeter): 29.94 in. Hg (1014 hPa)
ob: FMEE 250500Z AUTO 11019KT 9999 FEW058 28/15 Q1014 NOSIG
cycle: 5

Station Type Date Time Source
FMEE TAF 2022/01/25 06:19 UTC NOAA

TAF FMEE 250500Z 2506/2612 11016G28KT 9999 FEW025
BECMG 2515/2517 13012KT
TEMPO 2606/2609 11016G26KT

Example: see airport list